Hlavní strana
METAR-TAF:

METAR-TAF

Letiště :

Halmstad, Švédsko

zeměpisná šířka: 56-41N, zeměpisná délka: 012-50E, výška: 30 m

Aktuální stav počasí

Zpráva byla vytvořena před 33 minutami, v 02:20 UTC
Jihozápadní vítr 6 kt
Teplota 5°C
Vlhkost vzduchu 93%
Tlak 1028 hPa
Viditelnost: 5000 m

METAR: ESMT 050220Z AUTO 22006KT 5000 OVC007/// 05/04 Q1028

Čas: 04:53 (02:53 UTC)


TAF: chybějící

Stav a předpovědi počasí z více než 4 000 letišť (zprávy METAR a TAF).

Červené a žluté tečky na mapě představují dostupné meteorologické stanice.

Když kurzor umístíte na tečku, zobrazí se název stanice.

Pak kliknutím zobrazíte stav a předpověď počasí.

Chcete-li změnit mapu, kliknutím na zelené tlačítko se znaménkem +mapu přiblížíte, kliknutím na zelené tlačítko se znaménkem – mapu oddálíte a kliknutím na zelené šipky přejdete na sousední mapy.


METAR-TAF: